createdAt,value
2023-05-28T00:01:33.580Z,12.70
2023-05-28T00:04:00.720Z,12.60
2023-05-28T00:06:27.788Z,12.60
2023-05-28T00:08:54.720Z,12.60
2023-05-28T00:11:22.716Z,12.60
2023-05-28T00:13:49.695Z,12.60
2023-05-28T00:16:17.048Z,12.70
2023-05-28T00:18:44.047Z,12.60
2023-05-28T00:21:12.350Z,12.60
2023-05-28T00:23:39.439Z,12.60
2023-05-28T00:26:06.767Z,12.60
2023-05-28T00:28:33.698Z,12.60
2023-05-28T00:31:00.706Z,12.60
2023-05-28T00:33:27.635Z,12.60
2023-05-28T00:35:57.215Z,12.60
2023-05-28T00:38:24.630Z,12.60
2023-05-28T00:40:51.793Z,12.60
2023-05-28T00:43:20.410Z,12.50
2023-05-28T00:45:50.868Z,12.60
2023-05-28T00:48:19.179Z,12.50
2023-05-28T00:50:46.236Z,12.50
2023-05-28T00:53:16.109Z,12.50
2023-05-28T00:55:45.511Z,12.40
2023-05-28T00:58:12.936Z,12.40
2023-05-28T01:00:44.014Z,12.40
2023-05-28T01:03:11.249Z,12.40
2023-05-28T01:05:38.395Z,12.40
2023-05-28T01:08:08.451Z,12.30
2023-05-28T01:10:37.181Z,12.30
2023-05-28T01:13:08.358Z,12.20
2023-05-28T01:15:36.843Z,12.20
2023-05-28T01:18:05.432Z,12.20
2023-05-28T01:20:32.519Z,12.10
2023-05-28T01:23:18.153Z,12.10
2023-05-28T01:25:53.055Z,12.00
2023-05-28T01:28:22.978Z,12.10
2023-05-28T01:30:50.044Z,12.00
2023-05-28T01:33:17.463Z,12.00
2023-05-28T01:35:44.529Z,12.00
2023-05-28T01:38:15.999Z,12.00
2023-05-28T01:40:47.372Z,12.00
2023-05-28T01:43:16.084Z,11.90
2023-05-28T01:45:43.666Z,11.90
2023-05-28T01:48:12.256Z,12.00
2023-05-28T01:50:40.348Z,11.90
2023-05-28T01:53:07.322Z,11.90
2023-05-28T01:55:34.248Z,11.90
2023-05-28T01:58:01.193Z,11.80
2023-05-28T02:00:28.459Z,11.80
2023-05-28T02:02:55.483Z,11.70
2023-05-28T02:05:22.525Z,11.70
2023-05-28T02:07:49.451Z,11.70
2023-05-28T02:10:18.399Z,11.70
2023-05-28T02:12:45.457Z,11.60
2023-05-28T02:15:12.469Z,11.60
2023-05-28T02:17:40.659Z,11.60
2023-05-28T02:20:09.066Z,11.50
2023-05-28T02:22:36.084Z,11.50
2023-05-28T02:25:03.190Z,11.50
2023-05-28T02:27:31.259Z,11.40
2023-05-28T02:29:58.234Z,11.40
2023-05-28T02:32:25.289Z,11.30
2023-05-28T02:34:55.557Z,11.30
2023-05-28T02:37:24.882Z,11.20
2023-05-28T02:39:52.056Z,11.20
2023-05-28T02:42:18.991Z,11.10
2023-05-28T02:44:47.958Z,11.00
2023-05-28T02:47:14.973Z,11.00
2023-05-28T02:49:41.852Z,10.90
2023-05-28T02:52:08.832Z,10.80
2023-05-28T02:54:35.823Z,10.70
2023-05-28T02:57:03.130Z,10.50
2023-05-28T02:59:30.072Z,10.50
2023-05-28T03:01:56.978Z,10.50
2023-05-28T03:04:24.201Z,10.50
2023-05-28T03:06:51.410Z,10.50
2023-05-28T03:09:18.447Z,10.40
2023-05-28T03:11:45.324Z,10.40
2023-05-28T03:14:12.384Z,10.30
2023-05-28T03:16:39.311Z,10.30
2023-05-28T03:19:06.246Z,10.30
2023-05-28T03:21:36.225Z,10.10
2023-05-28T03:24:03.320Z,9.90
2023-05-28T03:26:30.585Z,9.70
2023-05-28T03:28:57.497Z,9.50
2023-05-28T03:31:33.061Z,9.30
2023-05-28T03:34:00.275Z,9.20
2023-05-28T03:36:28.266Z,9.10
2023-05-28T03:38:55.538Z,9.00
2023-05-28T03:41:24.532Z,9.00
2023-05-28T03:43:52.543Z,9.00
2023-05-28T03:46:19.496Z,8.90
2023-05-28T03:48:46.518Z,8.90
2023-05-28T03:51:13.417Z,8.80
2023-05-28T03:53:40.485Z,8.70
2023-05-28T03:56:08.476Z,8.80
2023-05-28T03:58:35.356Z,8.80
2023-05-28T04:01:02.609Z,8.70
2023-05-28T04:03:29.695Z,8.70
2023-05-28T04:05:56.921Z,8.70
2023-05-28T04:08:23.866Z,8.70
2023-05-28T04:10:50.752Z,8.70
2023-05-28T04:13:18.872Z,8.70
2023-05-28T04:15:45.894Z,8.70
2023-05-28T04:18:12.898Z,8.70
2023-05-28T04:20:39.863Z,8.90
2023-05-28T04:23:07.172Z,9.30
2023-05-28T04:25:34.131Z,9.50
2023-05-28T04:28:04.198Z,9.80
2023-05-28T04:30:31.519Z,10.00
2023-05-28T04:32:59.253Z,10.30
2023-05-28T04:35:27.155Z,10.40
2023-05-28T04:37:54.651Z,10.60
2023-05-28T04:40:22.259Z,10.70
2023-05-28T04:42:49.348Z,10.80
2023-05-28T04:45:17.187Z,10.90
2023-05-28T04:47:46.645Z,11.10
2023-05-28T04:50:13.635Z,11.20
2023-05-28T04:52:40.596Z,11.30
2023-05-28T04:55:08.511Z,11.50
2023-05-28T04:57:35.774Z,11.60
2023-05-28T05:00:04.399Z,11.70
2023-05-28T05:02:32.569Z,11.80
2023-05-28T05:04:59.624Z,11.90
2023-05-28T05:07:26.951Z,12.00
2023-05-28T05:09:53.905Z,12.10
2023-05-28T05:12:20.844Z,12.30
2023-05-28T05:14:48.833Z,12.40
2023-05-28T05:17:15.924Z,12.60
2023-05-28T05:19:42.863Z,12.70
2023-05-28T05:22:09.757Z,12.90
2023-05-28T05:24:36.715Z,13.00
2023-05-28T05:27:03.776Z,13.20
2023-05-28T05:29:30.729Z,13.40
2023-05-28T05:31:58.843Z,13.50
2023-05-28T05:34:25.869Z,13.80
2023-05-28T05:36:54.867Z,14.20
2023-05-28T05:39:21.784Z,14.50
2023-05-28T05:41:48.739Z,14.80
2023-05-28T05:44:15.906Z,15.10
2023-05-28T05:46:42.888Z,15.40
2023-05-28T05:49:12.864Z,15.60
2023-05-28T05:51:42.946Z,15.70
2023-05-28T05:54:09.874Z,15.80
2023-05-28T05:56:36.943Z,16.00
2023-05-28T05:59:04.006Z,16.10
2023-05-28T06:01:31.140Z,16.30
2023-05-28T06:03:58.153Z,16.40
2023-05-28T06:06:25.069Z,16.50
2023-05-28T06:08:51.996Z,16.60
2023-05-28T06:11:18.966Z,16.70
2023-05-28T06:13:47.887Z,16.90
2023-05-28T06:16:16.941Z,17.00
2023-05-28T06:18:43.859Z,17.10
2023-05-28T06:21:11.453Z,17.20
2023-05-28T06:23:40.693Z,17.20
2023-05-28T06:26:07.656Z,17.20
2023-05-28T06:28:34.587Z,17.20
2023-05-28T06:31:01.549Z,17.30
2023-05-28T06:33:28.469Z,17.30
2023-05-28T06:36:00.127Z,17.40
2023-05-28T06:38:27.053Z,17.60
2023-05-28T06:40:53.950Z,17.70
2023-05-28T06:43:21.902Z,17.80
2023-05-28T06:45:49.866Z,17.90
2023-05-28T06:48:16.771Z,18.20
2023-05-28T06:50:43.655Z,18.40
2023-05-28T06:53:10.548Z,18.50
2023-05-28T06:55:37.453Z,18.80
2023-05-28T06:58:04.435Z,19.00
2023-05-28T07:00:32.349Z,19.30
2023-05-28T07:02:59.603Z,19.60
2023-05-28T07:05:26.589Z,19.80
2023-05-28T07:07:53.749Z,20.30
2023-05-28T07:10:21.924Z,20.70
2023-05-28T07:12:48.824Z,20.70
2023-05-28T07:15:16.929Z,20.70
2023-05-28T07:17:43.881Z,21.00
2023-05-28T07:20:12.432Z,21.30
2023-05-28T07:22:39.372Z,21.60
2023-05-28T07:25:08.629Z,21.90
2023-05-28T07:27:35.681Z,22.30
2023-05-28T07:30:02.733Z,22.40
2023-05-28T07:32:31.771Z,22.40
2023-05-28T07:34:59.809Z,22.80
2023-05-28T07:37:26.877Z,22.80
2023-05-28T07:39:54.924Z,23.00
2023-05-28T07:42:21.895Z,23.30
2023-05-28T07:44:48.864Z,23.60
2023-05-28T07:47:16.641Z,24.00
2023-05-28T07:49:43.568Z,24.20
2023-05-28T07:52:12.266Z,24.50
2023-05-28T07:54:40.481Z,24.90
2023-05-28T07:57:07.477Z,24.90
2023-05-28T07:59:34.469Z,25.10
2023-05-28T08:03:39.564Z,24.90
2023-05-28T08:06:07.401Z,24.90
2023-05-28T08:08:34.375Z,25.30
2023-05-28T08:11:01.480Z,25.40
2023-05-28T08:13:28.440Z,25.40
2023-05-28T08:15:55.642Z,25.90
2023-05-28T08:18:22.888Z,26.10
2023-05-28T08:20:49.920Z,26.00
2023-05-28T08:23:17.054Z,25.80
2023-05-28T08:25:44.066Z,25.40
2023-05-28T08:28:11.244Z,24.90
2023-05-28T08:30:38.249Z,25.30
2023-05-28T08:33:05.527Z,25.80
2023-05-28T08:35:32.494Z,26.40
2023-05-28T08:37:59.525Z,26.70
2023-05-28T08:40:28.850Z,26.90
2023-05-28T08:42:56.296Z,26.90
2023-05-28T08:45:23.236Z,27.20
2023-05-28T08:47:52.306Z,26.80
2023-05-28T08:50:22.524Z,26.90
2023-05-28T08:52:50.312Z,26.90
2023-05-28T08:55:18.332Z,27.40
2023-05-28T08:57:47.805Z,27.90
2023-05-28T09:00:16.420Z,28.30
2023-05-28T09:02:43.436Z,28.40
2023-05-28T09:05:12.606Z,27.70
2023-05-28T09:07:39.584Z,27.40
2023-05-28T09:10:08.175Z,27.00
2023-05-28T09:12:35.735Z,27.10
2023-05-28T09:15:03.266Z,27.60
2023-05-28T09:17:40.296Z,28.10
2023-05-28T09:20:15.177Z,28.40
2023-05-28T09:22:44.979Z,28.80
2023-05-28T09:25:12.617Z,29.20
2023-05-28T09:27:45.455Z,29.00
2023-05-28T09:30:14.026Z,29.10
2023-05-28T09:32:41.978Z,29.30
2023-05-28T09:35:12.345Z,29.60
2023-05-28T09:37:40.376Z,30.70
2023-05-28T09:40:10.401Z,30.60
2023-05-28T09:42:42.635Z,31.30
2023-05-28T09:45:12.588Z,31.80
2023-05-28T09:47:47.560Z,32.30
2023-05-28T09:50:14.551Z,32.80
2023-05-28T09:52:46.027Z,32.20
2023-05-28T09:55:18.950Z,31.40
2023-05-28T09:58:06.762Z,31.30
2023-05-28T10:00:53.440Z,31.40
2023-05-28T10:03:39.533Z,32.10
2023-05-28T10:06:16.772Z,32.90
2023-05-28T10:08:52.402Z,33.40
2023-05-28T10:11:41.550Z,32.50
2023-05-28T10:14:10.619Z,32.50
2023-05-28T10:16:38.444Z,32.80
2023-05-28T10:19:05.948Z,32.80
2023-05-28T10:21:33.139Z,31.70
2023-05-28T10:24:00.880Z,31.80
2023-05-28T10:26:28.003Z,33.00
2023-05-28T10:28:58.469Z,31.80
2023-05-28T10:31:26.660Z,31.90
2023-05-28T10:33:53.738Z,32.40
2023-05-28T10:36:21.016Z,32.80
2023-05-28T10:38:53.638Z,32.60
2023-05-28T10:41:23.250Z,32.90
2023-05-28T10:43:54.131Z,32.60
2023-05-28T10:46:41.399Z,32.60
2023-05-28T10:49:17.788Z,33.30
2023-05-28T10:52:01.563Z,34.00
2023-05-28T10:54:34.267Z,34.50
2023-05-28T10:57:14.121Z,34.20
2023-05-28T10:59:53.334Z,33.40
2023-05-28T11:02:28.848Z,31.40
2023-05-28T11:05:01.431Z,32.10
2023-05-28T11:07:39.829Z,34.00
2023-05-28T11:10:16.914Z,34.70
2023-05-28T11:12:48.135Z,33.80
2023-05-28T11:15:15.468Z,33.80
2023-05-28T11:17:46.151Z,34.00
2023-05-28T11:20:29.143Z,34.20
2023-05-28T11:22:58.902Z,34.10
2023-05-28T11:25:28.947Z,34.90
2023-05-28T11:27:58.532Z,34.90
2023-05-28T11:30:25.932Z,33.60
2023-05-28T11:32:55.437Z,33.00
2023-05-28T11:35:22.732Z,33.80
2023-05-28T11:37:49.816Z,34.80
2023-05-28T11:40:17.474Z,33.50
2023-05-28T11:42:46.002Z,32.50
2023-05-28T11:45:14.277Z,31.80
2023-05-28T11:47:43.507Z,32.10
2023-05-28T11:50:16.130Z,33.10
2023-05-28T11:52:46.150Z,33.60
2023-05-28T11:55:16.905Z,32.60
2023-05-28T11:57:56.814Z,32.50
2023-05-28T12:00:34.885Z,32.50
2023-05-28T12:03:02.047Z,33.10
2023-05-28T12:05:39.316Z,33.40
2023-05-28T12:08:06.569Z,34.60
2023-05-28T12:10:33.577Z,35.60
2023-05-28T12:13:01.409Z,35.80
2023-05-28T12:15:32.759Z,36.10
2023-05-28T12:18:04.844Z,37.00
2023-05-28T12:20:36.136Z,37.70
2023-05-28T12:23:13.192Z,36.90
2023-05-28T12:25:51.987Z,35.50
2023-05-28T12:28:22.855Z,33.50
2023-05-28T12:30:54.806Z,32.30
2023-05-28T12:33:23.438Z,33.30
2023-05-28T12:35:51.484Z,33.50
2023-05-28T12:38:20.208Z,33.60
2023-05-28T12:40:47.143Z,32.60
2023-05-28T12:43:16.431Z,32.30
2023-05-28T12:45:43.638Z,33.30
2023-05-28T12:48:11.054Z,34.60
2023-05-28T12:50:38.091Z,35.40
2023-05-28T12:53:05.774Z,34.00
2023-05-28T12:55:33.515Z,33.00
2023-05-28T12:58:00.928Z,33.30
2023-05-28T13:00:28.087Z,34.00
2023-05-28T13:02:55.028Z,34.10
2023-05-28T13:05:22.246Z,34.80
2023-05-28T13:07:49.190Z,34.90
2023-05-28T13:10:16.115Z,34.20
2023-05-28T13:12:43.067Z,34.70
2023-05-28T13:15:11.150Z,34.70
2023-05-28T13:17:38.133Z,34.10
2023-05-28T13:20:08.413Z,33.40
2023-05-28T13:22:37.828Z,34.10
2023-05-28T13:25:06.378Z,35.20
2023-05-28T13:27:33.793Z,35.60
2023-05-28T13:30:01.975Z,35.40
2023-05-28T13:32:29.163Z,35.10
2023-05-28T13:34:56.147Z,35.40
2023-05-28T13:37:23.099Z,35.40
2023-05-28T13:39:50.062Z,34.50
2023-05-28T13:42:20.213Z,34.30
2023-05-28T13:44:52.270Z,34.10
2023-05-28T13:47:19.966Z,32.90
2023-05-28T13:49:46.918Z,33.20
2023-05-28T13:52:14.083Z,33.70
2023-05-28T13:54:42.471Z,33.60
2023-05-28T13:57:11.402Z,33.80
2023-05-28T13:59:38.407Z,34.00
2023-05-28T14:02:05.890Z,32.70
2023-05-28T14:04:33.134Z,31.70
2023-05-28T14:07:00.111Z,32.10
2023-05-28T14:09:27.358Z,32.50
2023-05-28T14:12:17.813Z,33.20
2023-05-28T14:14:42.317Z,33.80
2023-05-28T14:17:09.319Z,33.80
2023-05-28T14:19:36.383Z,34.00
2023-05-28T14:22:03.599Z,34.50
2023-05-28T14:24:33.356Z,35.40
2023-05-28T14:27:01.153Z,35.20
2023-05-28T14:29:28.147Z,34.70
2023-05-28T14:31:55.320Z,34.40
2023-05-28T14:34:22.289Z,34.80
2023-05-28T14:36:49.288Z,34.70
2023-05-28T14:39:16.405Z,35.10
2023-05-28T14:41:43.457Z,34.90
2023-05-28T14:44:11.856Z,35.10
2023-05-28T14:46:39.190Z,35.40
2023-05-28T14:49:06.250Z,35.30
2023-05-28T14:51:33.288Z,34.50
2023-05-28T14:54:00.438Z,33.80
2023-05-28T14:56:27.967Z,33.30
2023-05-28T14:58:54.918Z,33.30
2023-05-28T15:01:21.896Z,33.10
2023-05-28T15:03:49.075Z,33.20
2023-05-28T15:06:16.349Z,33.30
2023-05-28T15:08:44.037Z,33.50
2023-05-28T15:11:16.177Z,33.70
2023-05-28T15:13:43.120Z,32.90
2023-05-28T15:16:10.920Z,32.90
2023-05-28T15:18:37.966Z,33.30
2023-05-28T15:21:05.271Z,33.90
2023-05-28T15:23:33.420Z,33.30
2023-05-28T15:26:00.619Z,33.10
2023-05-28T15:28:27.946Z,32.50
2023-05-28T15:30:55.745Z,32.40
2023-05-28T15:33:23.436Z,31.90
2023-05-28T15:35:50.745Z,31.10
2023-05-28T15:38:18.315Z,31.00
2023-05-28T15:40:46.822Z,31.40
2023-05-28T15:43:14.013Z,31.20
2023-05-28T15:45:41.106Z,31.50
2023-05-28T15:48:08.186Z,31.90
2023-05-28T15:50:36.020Z,31.70
2023-05-28T15:53:03.759Z,31.30
2023-05-28T15:55:30.989Z,31.10
2023-05-28T15:57:58.188Z,30.90
2023-05-28T16:00:25.931Z,31.10
2023-05-28T16:02:55.532Z,31.20
2023-05-28T16:05:23.191Z,30.50
2023-05-28T16:07:50.610Z,30.50
2023-05-28T16:10:17.834Z,29.80
2023-05-28T16:12:45.280Z,29.60
2023-05-28T16:15:12.776Z,28.90
2023-05-28T16:17:40.319Z,29.10
2023-05-28T16:20:11.396Z,29.20
2023-05-28T16:22:39.902Z,29.50
2023-05-28T16:25:08.195Z,29.60
2023-05-28T16:27:36.389Z,29.50
2023-05-28T16:30:05.737Z,29.50
2023-05-28T16:32:33.952Z,29.20
2023-05-28T16:35:01.873Z,28.90
2023-05-28T16:37:30.161Z,28.80
2023-05-28T16:39:57.325Z,28.80
2023-05-28T16:42:24.759Z,28.50
2023-05-28T16:44:52.271Z,28.60
2023-05-28T16:47:19.801Z,28.50
2023-05-28T16:49:46.866Z,28.50
2023-05-28T16:52:13.944Z,28.40
2023-05-28T16:54:41.888Z,28.20
2023-05-28T16:57:08.969Z,28.10
2023-05-28T16:59:39.253Z,28.00
2023-05-28T17:02:07.225Z,27.80
2023-05-28T17:04:34.219Z,27.50
2023-05-28T17:07:01.289Z,27.40
2023-05-28T17:09:29.176Z,27.10
2023-05-28T17:11:56.151Z,26.70
2023-05-28T17:14:23.210Z,26.80
2023-05-28T17:16:50.749Z,26.90
2023-05-28T17:19:17.915Z,26.90
2023-05-28T17:21:46.166Z,26.70
2023-05-28T17:24:14.454Z,26.60
2023-05-28T17:26:41.511Z,26.50
2023-05-28T17:29:09.487Z,26.50
2023-05-28T17:31:36.861Z,26.30
2023-05-28T17:34:05.017Z,26.00
2023-05-28T17:36:32.868Z,25.90
2023-05-28T17:39:00.497Z,25.70
2023-05-28T17:41:28.278Z,25.60
2023-05-28T17:43:55.616Z,25.40
2023-05-28T17:46:35.752Z,25.30
2023-05-28T17:49:03.618Z,25.20
2023-05-28T17:51:31.352Z,25.10
2023-05-28T17:53:58.296Z,25.00
2023-05-28T17:56:26.763Z,24.80
2023-05-28T17:58:53.872Z,24.70
2023-05-28T18:01:20.982Z,24.60
2023-05-28T18:03:48.142Z,24.40
2023-05-28T18:06:15.281Z,24.30
2023-05-28T18:08:44.266Z,24.20
2023-05-28T18:11:11.387Z,23.90
2023-05-28T18:13:38.343Z,23.60
2023-05-28T18:16:05.672Z,23.20
2023-05-28T18:18:33.027Z,22.80
2023-05-28T18:21:00.283Z,22.40
2023-05-28T18:23:28.899Z,22.00
2023-05-28T18:25:55.981Z,21.70
2023-05-28T18:28:26.688Z,21.40
2023-05-28T18:30:55.419Z,21.20
2023-05-28T18:33:22.702Z,21.00
2023-05-28T18:35:49.836Z,20.90
2023-05-28T18:38:18.813Z,20.80
2023-05-28T18:40:45.759Z,20.60
2023-05-28T18:43:19.967Z,20.40
2023-05-28T18:45:49.319Z,20.20
2023-05-28T18:48:16.603Z,20.00
2023-05-28T18:50:43.588Z,19.80
2023-05-28T18:53:12.571Z,19.60
2023-05-28T18:55:39.460Z,19.50
2023-05-28T18:58:06.416Z,19.30
2023-05-28T19:00:33.528Z,19.10
2023-05-28T19:03:00.494Z,19.00
2023-05-28T19:05:27.436Z,18.80
2023-05-28T19:07:54.356Z,18.70
2023-05-28T19:10:22.366Z,18.50
2023-05-28T19:12:49.433Z,18.30
2023-05-28T19:15:16.560Z,18.20
2023-05-28T19:17:43.612Z,18.00
2023-05-28T19:20:11.279Z,17.80
2023-05-28T19:22:41.022Z,17.70
2023-05-28T19:25:11.026Z,17.60
2023-05-28T19:27:40.410Z,17.50
2023-05-28T19:30:09.615Z,17.50
2023-05-28T19:32:38.448Z,17.40
2023-05-28T19:35:07.167Z,17.30
2023-05-28T19:37:34.192Z,17.20
2023-05-28T19:40:01.143Z,17.10
2023-05-28T19:42:30.049Z,16.90
2023-05-28T19:44:57.732Z,16.80
2023-05-28T19:47:26.496Z,16.70
2023-05-28T19:49:53.394Z,16.60
2023-05-28T19:52:20.406Z,16.60
2023-05-28T19:54:48.970Z,16.60
2023-05-28T19:57:16.214Z,16.60
2023-05-28T19:59:43.291Z,16.50
2023-05-28T20:02:10.307Z,16.40
2023-05-28T20:04:38.489Z,16.30
2023-05-28T20:07:06.209Z,16.30
2023-05-28T20:09:33.226Z,16.30
2023-05-28T20:12:00.502Z,16.30
2023-05-28T20:14:27.623Z,16.20
2023-05-28T20:16:54.538Z,16.10
2023-05-28T20:19:25.123Z,16.10
2023-05-28T20:21:52.280Z,16.10
2023-05-28T20:24:19.788Z,16.00
2023-05-28T20:26:50.794Z,15.80
2023-05-28T20:29:20.940Z,15.70
2023-05-28T20:31:47.949Z,15.60
2023-05-28T20:34:15.024Z,15.50
2023-05-28T20:36:41.983Z,15.40
2023-05-28T20:39:09.364Z,15.40
2023-05-28T20:41:40.936Z,15.30
2023-05-28T20:44:07.874Z,15.20
2023-05-28T20:46:35.270Z,15.10
2023-05-28T20:49:02.248Z,15.00
2023-05-28T20:51:29.192Z,14.90
2023-05-28T20:54:02.192Z,14.80
2023-05-28T20:56:30.288Z,14.60
2023-05-28T20:58:58.115Z,14.50
2023-05-28T21:01:25.578Z,14.40
2023-05-28T21:03:53.258Z,14.30
2023-05-28T21:06:20.311Z,14.20
2023-05-28T21:08:48.199Z,14.10
2023-05-28T21:11:15.353Z,14.10
2023-05-28T21:13:42.454Z,14.20
2023-05-28T21:16:09.482Z,14.20
2023-05-28T21:18:36.401Z,14.30
2023-05-28T21:21:03.711Z,14.30
2023-05-28T21:23:31.087Z,14.40
2023-05-28T21:25:58.104Z,14.40
2023-05-28T21:28:25.071Z,14.40
2023-05-28T21:30:54.459Z,14.30
2023-05-28T21:33:22.851Z,14.30
2023-05-28T21:35:50.460Z,14.30
2023-05-28T21:38:17.488Z,14.30
2023-05-28T21:40:44.417Z,14.30
2023-05-28T21:43:11.596Z,14.30
2023-05-28T21:45:38.662Z,14.40
2023-05-28T21:48:06.961Z,14.40
2023-05-28T21:50:34.444Z,14.40
2023-05-28T21:53:01.425Z,14.50
2023-05-28T21:55:28.435Z,14.40
2023-05-28T21:57:55.399Z,14.40
2023-05-28T22:00:23.699Z,14.50
2023-05-28T22:02:50.817Z,14.50
2023-05-28T22:05:22.447Z,14.50
2023-05-28T22:07:51.887Z,14.40
2023-05-28T22:10:20.733Z,14.40
2023-05-28T22:12:50.623Z,14.40
2023-05-28T22:15:17.700Z,14.40
2023-05-28T22:17:45.714Z,14.40
2023-05-28T22:20:14.306Z,14.40
2023-05-28T22:22:42.794Z,14.30
2023-05-28T22:25:11.911Z,14.30
2023-05-28T22:27:40.551Z,14.30
2023-05-28T22:30:08.613Z,14.30
2023-05-28T22:32:35.786Z,14.30
2023-05-28T22:35:05.416Z,14.20
2023-05-28T22:37:32.506Z,14.30
2023-05-28T22:39:59.670Z,14.30
2023-05-28T22:42:26.899Z,14.30
2023-05-28T22:44:54.035Z,14.40
2023-05-28T22:47:21.939Z,14.40
2023-05-28T22:49:48.896Z,14.40
2023-05-28T22:52:15.932Z,14.40
2023-05-28T22:54:43.267Z,14.30
2023-05-28T22:57:10.288Z,14.30
2023-05-28T22:59:37.256Z,14.30
2023-05-28T23:02:04.349Z,14.40
2023-05-28T23:04:31.799Z,14.50
2023-05-28T23:06:59.183Z,14.60
2023-05-28T23:09:26.291Z,14.70
2023-05-28T23:11:53.341Z,14.60
2023-05-28T23:14:20.237Z,14.60
2023-05-28T23:16:47.626Z,14.40
2023-05-28T23:19:16.092Z,14.30
2023-05-28T23:21:43.475Z,14.30
2023-05-28T23:24:10.635Z,14.40
2023-05-28T23:26:37.531Z,14.40
2023-05-28T23:29:04.759Z,14.30
2023-05-28T23:31:32.893Z,14.40
2023-05-28T23:34:00.631Z,14.40
2023-05-28T23:36:29.361Z,14.40
2023-05-28T23:38:57.132Z,14.30
2023-05-28T23:41:24.144Z,14.20
2023-05-28T23:43:51.083Z,14.10
2023-05-28T23:46:18.238Z,14.10
2023-05-28T23:48:45.188Z,14.10
2023-05-28T23:51:12.423Z,14.20
2023-05-28T23:53:39.347Z,14.20
2023-05-28T23:56:06.957Z,14.20
2023-05-28T23:58:33.898Z,14.10
